Time;durP1;ratioP1;P1;durP2;ratioP2;P2;SDS_P1;SDS_P2;PMS_P1;PMS_P2;Temp;Humidity;BMP_temperature;BMP_pressure;BME280_temperature;BME280_humidity;BME280_pressure;Samples;Min_cycle;Max_cycle;Signal;HPM_P1;HPM_P2
2022/06/11 00:01:33;;;;;;;7.00;2.80;;;;;;;;;;4994100;28;20076;-84
2022/06/11 00:04:04;;;;;;;4.78;2.30;;;;;;;;;;4993915;28;20041;-94
2022/06/11 00:06:31;;;;;;;5.88;2.40;;;;;;;;;;4993908;28;20462;-92
2022/06/11 00:08:58;;;;;;;3.35;2.50;;;;;;;;;;4994211;28;20027;-83
2022/06/11 00:11:25;;;;;;;5.10;2.67;;;;;;;;;;4995145;28;20022;-93
2022/06/11 00:13:52;;;;;;;4.90;2.40;;;;;;;;;;4994181;28;20057;-93
2022/06/11 00:16:19;;;;;;;6.50;2.50;;;;;;;;;;4994217;28;20447;-83
2022/06/11 00:18:49;;;;;;;3.92;2.55;;;;;;;;;;4993770;28;20031;-93
2022/06/11 00:21:19;;;;;;;4.53;2.42;;;;;;;;;;4993637;28;20049;-92
2022/06/11 00:23:46;;;;;;;3.85;2.40;;;;;;;;;;4993612;28;20027;-95
2022/06/11 00:26:12;;;;;;;6.50;2.15;;;;;;;;;;4995009;28;20074;-93
2022/06/11 00:28:40;;;;;;;4.50;2.35;;;;;;;;;;4993736;28;20178;-93
2022/06/11 00:31:07;;;;;;;5.45;2.47;;;;;;;;;;4993658;28;20022;-86
2022/06/11 00:33:35;;;;;;;5.05;2.30;;;;;;;;;;4994853;28;20034;-92
2022/06/11 00:36:02;;;;;;;3.97;2.17;;;;;;;;;;4995432;28;20038;-90
2022/06/11 00:38:31;;;;;;;6.90;2.40;;;;;;;;;;4995390;28;20035;-93
2022/06/11 00:40:57;;;;;;;4.25;2.35;;;;;;;;;;4993700;28;20030;-92
2022/06/11 00:43:25;;;;;;;4.63;2.50;;;;;;;;;;4993700;28;20022;-92
2022/06/11 00:45:51;;;;;;;7.63;2.60;;;;;;;;;;4993581;28;20031;-92
2022/06/11 00:48:20;;;;;;;5.60;2.40;;;;;;;;;;4993504;28;20084;-92
2022/06/11 00:50:49;;;;;;;3.60;2.03;;;;;;;;;;4993558;28;20030;-89
2022/06/11 00:53:18;;;;;;;11.90;2.80;;;;;;;;;;4993387;28;20131;-93
2022/06/11 00:55:45;;;;;;;3.88;2.47;;;;;;;;;;4993510;28;20398;-92
2022/06/11 00:58:23;;;;;;;4.07;2.45;;;;;;;;;;4993149;28;20022;-83
2022/06/11 01:00:52;;;;;;;3.45;2.28;;;;;;;;;;4993214;28;20034;-87
2022/06/11 01:03:21;;;;;;;4.32;2.33;;;;;;;;;;4993154;28;20081;-83
2022/06/11 01:05:49;;;;;;;4.00;2.17;;;;;;;;;;4993151;28;20396;-84
2022/06/11 01:08:44;;;;;;;3.08;2.05;;;;;;;;;;4993248;28;20026;-84
2022/06/11 01:11:17;;;;;;;6.57;2.20;;;;;;;;;;4986302;28;20129;-84
2022/06/11 01:14:07;;;;;;;5.13;2.60;;;;;;;;;;4993400;28;20042;-83
2022/06/11 01:16:59;;;;;;;4.53;2.47;;;;;;;;;;4993052;28;20034;-88
2022/06/11 01:19:37;;;;;;;4.25;2.55;;;;;;;;;;4988554;28;20039;-92
2022/06/11 01:22:25;;;;;;;3.88;2.30;;;;;;;;;;4993165;28;20026;-85
2022/06/11 01:25:04;;;;;;;4.55;2.58;;;;;;;;;;4993171;28;20046;-93
2022/06/11 01:27:42;;;;;;;4.03;2.50;;;;;;;;;;4993195;28;20030;-91
2022/06/11 01:30:12;;;;;;;5.65;2.35;;;;;;;;;;4993227;28;20040;-85
2022/06/11 01:32:46;;;;;;;5.82;2.60;;;;;;;;;;4993354;28;20030;-84
2022/06/11 01:35:32;;;;;;;4.03;2.47;;;;;;;;;;4992799;28;20114;-84
2022/06/11 01:38:03;;;;;;;6.65;2.63;;;;;;;;;;4992669;28;20052;-93
2022/06/11 01:40:48;;;;;;;6.53;2.65;;;;;;;;;;4993073;28;20042;-86
2022/06/11 01:43:14;;;;;;;4.63;2.42;;;;;;;;;;4995204;28;20030;-84
2022/06/11 01:45:41;;;;;;;6.13;2.47;;;;;;;;;;4994014;28;20124;-84
2022/06/11 01:48:10;;;;;;;3.35;2.00;;;;;;;;;;4996650;28;20023;-93
2022/06/11 01:50:40;;;;;;;4.68;2.20;;;;;;;;;;4996542;28;20026;-91
2022/06/11 01:53:14;;;;;;;3.92;2.60;;;;;;;;;;4996517;28;20054;-84
2022/06/11 01:55:46;;;;;;;4.55;2.20;;;;;;;;;;4997210;28;20096;-84
2022/06/11 01:58:21;;;;;;;4.95;2.85;;;;;;;;;;4996116;28;20476;-83
2022/06/11 02:00:53;;;;;;;4.72;2.47;;;;;;;;;;4996584;28;20117;-84
2022/06/11 02:03:38;;;;;;;3.13;2.35;;;;;;;;;;4996569;28;20038;-90
2022/06/11 02:06:43;;;;;;;4.93;2.42;;;;;;;;;;4996096;28;20181;-90
2022/06/11 02:09:24;;;;;;;8.10;2.30;;;;;;;;;;4976384;28;20569;-93
2022/06/11 02:11:58;;;;;;;5.30;2.50;;;;;;;;;;4959751;28;20174;-84
2022/06/11 02:14:27;;;;;;;3.95;2.53;;;;;;;;;;4981851;28;20496;-84
2022/06/11 02:16:56;;;;;;;6.35;2.53;;;;;;;;;;4996257;28;20065;-93
2022/06/11 02:19:25;;;;;;;4.30;3.10;;;;;;;;;;4999567;28;20042;-82
2022/06/11 02:22:02;;;;;;;4.20;2.60;;;;;;;;;;4995955;28;20022;-83
2022/06/11 02:24:34;;;;;;;3.70;2.58;;;;;;;;;;4996074;28;20049;-90
2022/06/11 02:27:03;;;;;;;4.95;2.60;;;;;;;;;;4996342;28;20523;-94
2022/06/11 02:29:31;;;;;;;3.53;2.30;;;;;;;;;;4995984;28;20128;-84
2022/06/11 02:31:58;;;;;;;5.30;2.65;;;;;;;;;;4995615;28;20085;-93
2022/06/11 02:34:26;;;;;;;3.83;2.42;;;;;;;;;;4995832;28;20105;-84
2022/06/11 02:37:01;;;;;;;4.90;2.63;;;;;;;;;;4995878;28;20026;-93
2022/06/11 02:39:29;;;;;;;3.60;2.60;;;;;;;;;;4995794;28;20518;-92
2022/06/11 02:41:57;;;;;;;3.85;2.80;;;;;;;;;;4996824;28;20022;-84
2022/06/11 02:44:23;;;;;;;5.07;2.78;;;;;;;;;;4995305;28;20036;-93
2022/06/11 02:46:49;;;;;;;5.10;2.25;;;;;;;;;;4996671;28;20485;-83
2022/06/11 02:49:18;;;;;;;3.92;2.40;;;;;;;;;;4995374;28;20033;-83
2022/06/11 02:51:45;;;;;;;3.35;2.65;;;;;;;;;;4995477;28;20570;-92
2022/06/11 02:54:11;;;;;;;4.78;2.63;;;;;;;;;;4995588;28;20034;-94
2022/06/11 02:56:38;;;;;;;3.53;2.60;;;;;;;;;;4995604;28;20027;-90
2022/06/11 02:59:04;;;;;;;6.13;2.45;;;;;;;;;;4997993;28;20487;-84
2022/06/11 03:01:31;;;;;;;4.63;2.53;;;;;;;;;;4995422;28;20399;-93
2022/06/11 03:03:57;;;;;;;6.22;2.70;;;;;;;;;;4995462;28;20038;-92
2022/06/11 03:06:24;;;;;;;7.38;2.70;;;;;;;;;;4995224;28;20518;-93
2022/06/11 03:08:50;;;;;;;4.97;2.67;;;;;;;;;;4994813;28;20026;-83
2022/06/11 03:11:17;;;;;;;3.92;2.58;;;;;;;;;;4995259;28;20165;-95
2022/06/11 03:13:43;;;;;;;7.07;2.80;;;;;;;;;;4994878;28;20026;-83
2022/06/11 03:16:13;;;;;;;6.93;2.70;;;;;;;;;;4995256;28;20030;-88
2022/06/11 03:18:39;;;;;;;6.53;2.70;;;;;;;;;;4994859;28;20097;-83
2022/06/11 03:21:06;;;;;;;3.83;2.90;;;;;;;;;;4996025;28;20081;-84
2022/06/11 03:23:32;;;;;;;3.67;2.67;;;;;;;;;;4994906;28;20023;-93
2022/06/11 03:25:59;;;;;;;4.20;2.38;;;;;;;;;;4995374;28;20463;-83
2022/06/11 03:28:27;;;;;;;4.07;2.40;;;;;;;;;;4994887;28;20026;-86
2022/06/11 03:30:53;;;;;;;4.13;2.65;;;;;;;;;;5000054;28;20483;-92
2022/06/11 03:33:20;;;;;;;4.95;2.63;;;;;;;;;;4995086;28;20467;-93
2022/06/11 03:35:49;;;;;;;5.05;2.95;;;;;;;;;;4994741;28;20387;-94
2022/06/11 03:38:16;;;;;;;6.80;3.10;;;;;;;;;;4994669;28;20081;-84
2022/06/11 03:40:42;;;;;;;6.32;3.03;;;;;;;;;;4994462;28;20468;-94
2022/06/11 03:43:08;;;;;;;3.95;2.40;;;;;;;;;;4994596;28;20030;-83
2022/06/11 03:45:35;;;;;;;3.78;2.30;;;;;;;;;;4994402;28;20038;-85
2022/06/11 03:48:01;;;;;;;4.28;2.58;;;;;;;;;;4994150;28;20037;-93
2022/06/11 03:50:30;;;;;;;5.57;2.70;;;;;;;;;;4994601;28;20068;-82
2022/06/11 03:52:56;;;;;;;7.57;2.60;;;;;;;;;;4994514;28;20018;-93
2022/06/11 03:55:23;;;;;;;3.17;2.40;;;;;;;;;;4996598;28;20034;-93
2022/06/11 03:57:50;;;;;;;5.47;2.53;;;;;;;;;;4994659;28;20031;-93
2022/06/11 04:01:14;;;;;;;4.93;2.80;;;;;;;;;;4994149;28;20038;-92
2022/06/11 04:03:09;;;;;;;4.78;2.47;;;;;;;;;;4995361;28;20026;-84
2022/06/11 04:05:36;;;;;;;4.25;2.53;;;;;;;;;;4994032;28;20034;-84
2022/06/11 04:08:02;;;;;;;6.38;2.75;;;;;;;;;;4993671;28;20027;-91
2022/06/11 04:10:29;;;;;;;3.35;2.38;;;;;;;;;;4994264;28;20026;-94
2022/06/11 04:12:55;;;;;;;3.95;2.17;;;;;;;;;;4994128;28;20030;-82
2022/06/11 04:17:57;;;;;;;4.93;2.42;;;;;;;;;;5072672;22;20194;-92
2022/06/11 04:20:23;;;;;;;6.28;2.30;;;;;;;;;;5036556;28;20498;-84
2022/06/11 04:22:49;;;;;;;4.72;2.58;;;;;;;;;;5036604;28;20037;-93
2022/06/11 04:25:16;;;;;;;3.60;2.33;;;;;;;;;;5042687;28;20040;-84
2022/06/11 04:27:43;;;;;;;4.63;2.40;;;;;;;;;;5054308;28;20092;-91
2022/06/11 04:30:11;;;;;;;5.70;2.22;;;;;;;;;;5036338;28;20040;-84
2022/06/11 04:32:38;;;;;;;4.45;2.30;;;;;;;;;;5036527;28;20051;-83
2022/06/11 04:35:04;;;;;;;6.35;2.72;;;;;;;;;;5036710;28;20031;-93
2022/06/11 04:37:31;;;;;;;3.60;2.35;;;;;;;;;;5036316;28;20075;-94
2022/06/11 04:39:58;;;;;;;5.10;2.35;;;;;;;;;;5036196;28;20489;-93
2022/06/11 04:42:27;;;;;;;3.88;2.05;;;;;;;;;;5053865;28;20025;-93
2022/06/11 04:44:54;;;;;;;3.05;1.77;;;;;;;;;;5036355;28;20124;-83
2022/06/11 04:47:22;;;;;;;4.30;1.80;;;;;;;;;;5036125;28;20056;-85
2022/06/11 04:49:49;;;;;;;5.80;1.92;;;;;;;;;;5036413;28;20025;-94
2022/06/11 04:52:15;;;;;;;3.45;1.70;;;;;;;;;;5035865;28;20366;-85
2022/06/11 04:54:42;;;;;;;6.50;1.77;;;;;;;;;;5036064;28;20098;-84
2022/06/11 04:57:08;;;;;;;3.85;1.77;;;;;;;;;;5038128;28;20500;-85
2022/06/11 04:59:34;;;;;;;4.78;1.60;;;;;;;;;;5036364;28;20037;-85
2022/06/11 05:02:02;;;;;;;2.78;1.50;;;;;;;;;;5054009;28;20032;-94
2022/06/11 05:04:28;;;;;;;3.20;1.30;;;;;;;;;;5036049;28;20029;-85
2022/06/11 05:06:54;;;;;;;6.15;1.63;;;;;;;;;;5036028;28;20070;-82
2022/06/11 05:09:22;;;;;;;2.45;1.45;;;;;;;;;;5054334;28;20029;-82
2022/06/11 05:11:48;;;;;;;3.03;1.25;;;;;;;;;;5036203;28;20025;-93
2022/06/11 05:14:15;;;;;;;4.55;1.42;;;;;;;;;;5035785;28;20021;-83
2022/06/11 05:16:43;;;;;;;2.90;1.27;;;;;;;;;;5032491;28;20069;-83
2022/06/11 05:19:10;;;;;;;2.45;1.23;;;;;;;;;;5032485;28;20041;-90
2022/06/11 05:21:37;;;;;;;2.67;1.08;;;;;;;;;;5034929;28;20017;-88
2022/06/11 05:24:03;;;;;;;5.13;1.40;;;;;;;;;;5036198;28;20099;-87
2022/06/11 05:26:33;;;;;;;3.45;1.40;;;;;;;;;;5036497;28;20445;-84
2022/06/11 05:28:59;;;;;;;3.20;1.60;;;;;;;;;;5040563;28;20021;-89
2022/06/11 05:31:25;;;;;;;4.43;1.20;;;;;;;;;;5037551;28;20112;-82
2022/06/11 05:33:51;;;;;;;3.08;1.33;;;;;;;;;;5036492;28;20017;-91
2022/06/11 05:36:19;;;;;;;2.78;1.58;;;;;;;;;;5036343;28;20030;-85
2022/06/11 05:38:45;;;;;;;2.00;1.00;;;;;;;;;;5037114;28;20386;-93
2022/06/11 05:41:11;;;;;;;4.15;1.42;;;;;;;;;;5036529;28;20072;-83
2022/06/11 05:43:38;;;;;;;5.32;1.50;;;;;;;;;;5036302;28;20144;-90
2022/06/11 05:46:12;;;;;;;2.40;1.10;;;;;;;;;;5036532;28;20474;-91
2022/06/11 05:48:45;;;;;;;3.78;1.13;;;;;;;;;;5036213;28;20032;-91
2022/06/11 05:51:12;;;;;;;4.28;1.20;;;;;;;;;;5036581;28;20064;-84
2022/06/11 05:53:39;;;;;;;3.25;1.25;;;;;;;;;;5036032;28;20025;-82
2022/06/11 05:56:07;;;;;;;3.00;1.20;;;;;;;;;;5037717;28;20022;-94
2022/06/11 05:58:34;;;;;;;5.07;1.40;;;;;;;;;;5037814;28;20033;-91
2022/06/11 06:01:01;;;;;;;3.67;1.25;;;;;;;;;;5039135;28;20083;-89
2022/06/11 06:03:27;;;;;;;2.22;1.30;;;;;;;;;;5039115;28;20398;-84
2022/06/11 06:05:55;;;;;;;6.15;1.40;;;;;;;;;;5036982;28;20037;-95
2022/06/11 06:08:22;;;;;;;2.50;0.90;;;;;;;;;;5037819;28;20105;-83
2022/06/11 06:10:48;;;;;;;2.40;1.00;;;;;;;;;;5037296;28;20029;-85
2022/06/11 06:15:59;;;;;;;3.97;1.30;;;;;;;;;;5041315;28;20413;-83
2022/06/11 06:18:25;;;;;;;6.68;1.10;;;;;;;;;;5058790;28;20021;-84
2022/06/11 06:20:51;;;;;;;4.70;0.93;;;;;;;;;;5057048;28;20033;-83
2022/06/11 06:23:17;;;;;;;4.50;1.13;;;;;;;;;;5040343;28;20477;-88
2022/06/11 06:25:44;;;;;;;5.22;1.00;;;;;;;;;;5056477;28;20031;-92
2022/06/11 06:28:10;;;;;;;5.57;1.05;;;;;;;;;;5041060;28;20104;-89
2022/06/11 06:30:36;;;;;;;3.47;1.10;;;;;;;;;;5039033;28;20025;-88
2022/06/11 06:33:02;;;;;;;4.20;1.10;;;;;;;;;;5037980;28;20043;-81
2022/06/11 06:35:28;;;;;;;3.78;1.10;;;;;;;;;;5038297;28;20057;-85
2022/06/11 06:37:54;;;;;;;4.88;1.00;;;;;;;;;;5056459;28;20043;-93
2022/06/11 06:40:21;;;;;;;4.07;1.23;;;;;;;;;;5056385;28;20033;-92
2022/06/11 06:42:47;;;;;;;3.38;1.10;;;;;;;;;;5038782;28;20025;-89
2022/06/11 06:45:15;;;;;;;5.82;1.00;;;;;;;;;;5038520;28;20031;-85
2022/06/11 06:47:41;;;;;;;3.47;1.05;;;;;;;;;;5057642;28;20020;-84
2022/06/11 06:50:08;;;;;;;4.85;1.38;;;;;;;;;;5038399;28;20486;-88
2022/06/11 06:52:35;;;;;;;5.90;1.20;;;;;;;;;;5038503;28;20021;-84
2022/06/11 06:55:01;;;;;;;2.88;1.00;;;;;;;;;;5037985;28;20474;-84
2022/06/11 06:57:27;;;;;;;4.82;1.25;;;;;;;;;;5037668;28;20021;-84
2022/06/11 06:59:53;;;;;;;4.68;1.40;;;;;;;;;;5037419;28;20041;-81
2022/06/11 07:02:19;;;;;;;4.07;1.00;;;;;;;;;;5037740;28;20032;-84
2022/06/11 07:04:46;;;;;;;3.35;1.20;;;;;;;;;;5037606;28;20086;-82
2022/06/11 07:07:16;;;;;;;3.60;1.10;;;;;;;;;;5037556;28;20025;-81
2022/06/11 07:09:42;;;;;;;4.30;1.65;;;;;;;;;;5037734;28;20128;-80
2022/06/11 07:12:08;;;;;;;2.47;1.00;;;;;;;;;;5054883;28;20033;-89
2022/06/11 07:14:34;;;;;;;2.80;1.30;;;;;;;;;;5037762;28;20056;-93
2022/06/11 07:17:05;;;;;;;2.55;1.20;;;;;;;;;;5038494;28;20114;-93
2022/06/11 07:19:32;;;;;;;3.80;1.42;;;;;;;;;;5038447;28;20489;-88
2022/06/11 07:22:02;;;;;;;4.72;1.25;;;;;;;;;;5037562;28;20025;-93
2022/06/11 07:24:30;;;;;;;4.43;1.55;;;;;;;;;;5037788;28;20120;-87
2022/06/11 07:27:05;;;;;;;4.60;1.40;;;;;;;;;;5037373;28;20025;-93
2022/06/11 07:29:39;;;;;;;3.08;1.30;;;;;;;;;;5037789;28;20167;-84
2022/06/11 07:32:17;;;;;;;4.57;1.30;;;;;;;;;;5037095;28;20124;-93
2022/06/11 07:34:58;;;;;;;4.00;1.40;;;;;;;;;;5039730;28;20025;-93
2022/06/11 07:37:25;;;;;;;3.58;1.55;;;;;;;;;;5039769;28;20029;-92
2022/06/11 07:39:51;;;;;;;3.75;1.48;;;;;;;;;;5037682;28;20033;-92
2022/06/11 07:42:17;;;;;;;4.53;1.30;;;;;;;;;;5036843;28;20024;-85
2022/06/11 07:44:43;;;;;;;2.60;1.35;;;;;;;;;;5036798;28;20041;-84
2022/06/11 07:47:09;;;;;;;2.92;1.13;;;;;;;;;;5037031;28;20121;-88
2022/06/11 07:49:36;;;;;;;2.92;1.05;;;;;;;;;;5054875;28;20029;-86
2022/06/11 07:52:03;;;;;;;2.25;1.05;;;;;;;;;;5037267;28;20027;-83
2022/06/11 07:54:31;;;;;;;2.92;1.00;;;;;;;;;;5036975;28;20082;-80
2022/06/11 07:56:57;;;;;;;8.65;2.60;;;;;;;;;;5036813;28;20090;-80
2022/06/11 07:59:23;;;;;;;3.95;1.48;;;;;;;;;;5036261;28;20075;-78
2022/06/11 08:01:50;;;;;;;4.85;1.60;;;;;;;;;;5036121;28;20033;-83
2022/06/11 08:04:16;;;;;;;4.20;1.17;;;;;;;;;;5053682;28;20105;-78
2022/06/11 08:06:42;;;;;;;2.83;1.00;;;;;;;;;;5037198;28;20115;-80
2022/06/11 08:09:08;;;;;;;3.88;1.10;;;;;;;;;;5035527;28;20037;-75
2022/06/11 08:11:34;;;;;;;2.88;1.23;;;;;;;;;;5035506;28;20081;-83
2022/06/11 08:14:01;;;;;;;4.25;1.10;;;;;;;;;;5035615;28;20025;-89
2022/06/11 08:16:27;;;;;;;3.97;1.33;;;;;;;;;;5033247;28;20045;-80
2022/06/11 08:18:53;;;;;;;3.50;0.90;;;;;;;;;;5032449;28;20167;-80
2022/06/11 08:21:20;;;;;;;3.55;1.20;;;;;;;;;;5033102;28;20093;-79
2022/06/11 08:23:47;;;;;;;3.60;1.27;;;;;;;;;;5032662;28;20025;-78
2022/06/11 08:26:13;;;;;;;3.53;0.80;;;;;;;;;;5033605;28;20056;-81
2022/06/11 08:28:39;;;;;;;4.43;1.20;;;;;;;;;;5032310;28;20025;-84
2022/06/11 08:31:05;;;;;;;4.70;1.08;;;;;;;;;;5032398;28;20028;-80
2022/06/11 08:33:32;;;;;;;4.35;1.10;;;;;;;;;;5032343;28;20030;-83
2022/06/11 08:35:58;;;;;;;2.60;0.80;;;;;;;;;;5032859;28;20049;-90
2022/06/11 08:38:24;;;;;;;4.78;0.90;;;;;;;;;;5034210;28;20025;-91
2022/06/11 08:40:53;;;;;;;3.28;0.93;;;;;;;;;;5032963;28;20033;-88
2022/06/11 08:43:26;;;;;;;5.47;0.90;;;;;;;;;;5032659;28;20116;-87
2022/06/11 08:46:08;;;;;;;4.72;0.90;;;;;;;;;;5032758;28;20112;-83
2022/06/11 08:48:34;;;;;;;2.20;0.90;;;;;;;;;;5033936;28;20494;-93
